Portada
METAR-TAF:

METAR-TAF

Aeroports :

Moscou-Vnukovo, Rússia

latitud: 55-39N, longitud: 037-16E, altitud: 203 m

Observació

L'informe es va fer fa 25 minuts, a les 22:30 UTC
Vent 4 kt del Oest
Temperatura 16°C
Humitat 88%
Pressió 1018 hPa
Visibilitat 10 km o més
sense núvols per sota de 1500 mi sense presència de cumulonimbus.

METAR: UUWW 082230Z 28002MPS CAVOK 16/14 Q1018 R24/000070 NOSIG

Hora: 01:55 (22:55 UTC)

Pronòstic

L'informe es va fer fa 2 hores i 57 minuts, a les 19:58 UTC
Pronòstic vàlid del 08 a les 21 UTC al 09 a les 21 UTC
Vent 6 kt del Oest/Nord-Oest
Visibilitat 10 km o més
Núvols disperses a una alçada de 3000 ft
Temporalment
l' 09 a les 09 UTC al 09 a les 16 UTC
Vent 16 kt del Nord/Nord-Oest amb ràfegues de 25 kt
Núvols disperses a una alçada de 2500 ft, Cumulonimbus.
xàfecs de pluja

TAF: UUWW 081958Z 0821/0921 30003MPS 9999 SCT030 TX22/0912Z TN14/0902Z TEMPO 0909/0916 34008G13MPS -SHRA SCT025CB

Observacions i pronòstics meteorològics de més de 4000 aeroports (METAR i TAF).

Les estacions disponibles són els punts grocs i vermells al mapa.

Posi el ratolí al punt desitjat per veure el nom de l'estació.

Feu clic per veure les observacions i els pronòstics meteorològics.

Per canviar el mapa: feu clic els botons verds amb una creu de color negre per apropar; al botó verd amb un guió per allunyar la imatge; o en les fletxes verdes per a mapes adjacents.


METAR-TAF: